Airfield :
LOGIN :

Register | Disclaimer

   EN    FR    IT 

 










Legend :    VFR   Marginal VFR   IFR   Intensive IFR   Very Intensive IFR
Visi :
Ceiling :
>= 8 km
>= 3000ft
5 to 8 km
1000 to 3000 ft
1500m to 5 km
500 to 1000 ft
800 to 1500m
200 to 500 ft
< 800m
< 200 ft
Symbols :   Thunderstorms  Fog  Heavy snow  Heavy precipitations  Wind > 20 kt
SIGMETs :     Misc.  Thunderstorms  Icing  Turbulence  Mountain Waves  Volcanic Ashes






- Airport Elevation : 20 ft


EBFN - Koksijde

CURRENT METAR :
  • 080555Z 23006KT 8000 SCT004 OVC008 15/14 Q1014 YLO YLO TEMPO GRN

EXPIRED METARs :
  • 080525Z 23006KT 5000 SCT004 OVC008 14/14 Q1014 YLO YLO TEMPO GRN
  • 080455Z 22007KT 4000 SCT004 OVC009 14/14 Q1014 YLO YLO TEMPO GRN
  • 080447Z 22007KT 4000 SCT004 OVC009 14/14 Q1014 YLO YLO TEMPO GRN
  • 080425Z AUTO 22007KT 2500 -RA OVC004/// 14/14 Q1014 YLO
  • 080355Z AUTO 22007KT 2500 -RA OVC004/// 14/14 Q1014 YLO
  • 080325Z AUTO 22007KT 3900 -RA OVC004/// 14/14 Q1015 YLO

TAF TAF EBFN
Valid from the 07 at 19:00 until the 08 at 07:00 UTC


071541Z 0719/0807 24012KT 9999 BKN050 OVC080
TEMPO 0719/0720 26015G25KT
BECMG 0800/0802 6000 -RA SCT013 BKN040
BECMG 0802/0804 4000 RA BKN008 OVC030
TEMPO 0805/0807 26014G24KT 3000 RA BKN006 OVC008



MET'MAP, your aeronautical weather chart ! - Copyright ORBIFLY December 2007 - Disclaimer

ORBIFLY MET'MAP TEAM :

Programming & Development : Alexandra Zaïnal
Concept & original design : Baudouin d'Aumeries
Assistance for programming : Marc-Olivier Méhu
Technical & hardware support : Manuel Goepfert

Contact : metmap@orbifly.com




SOURCES & CREDITS :

   NOAA